Tiempo atmosférico en la estación meteorológica de Briviesca, Burgos (730 m.)

Fecha
DESCASC
Temp. máxima en grados centígrados (hora)
DESCASC
Temp. mínima en grados centígrados (hora)
DESCASC
Temp. media en grados centígrados
DESCASC
Racha de viento máxima en m/sg (hora)
DESCASC
Velocidad máxima media en intervalos de 10 minutos(hora)
DESCASC
Precipitaciones diarias en mm
DESCASC
Precipitaciones de 00:00 a 06:00 en mm
DESCASC
Precipitaciones de 06:00 a 12:00 en mm
DESCASC
Precipitaciones de 12:00 a 18:00 en mm
DESCASC
Precipitaciones de 18:00 a 24:00 en mm
DESCASC
17-08-2017 32.9 (17:10) 10.6 (06:40) 21.8 12.22 (18:30) 8.89 (18:30) 0 0 0 0 0
16-08-2017 29.3 (16:50) 16.2 (06:50) 22.8 9.17 (18:20) 5.83 (18:30) 0 0 0 0 0
15-08-2017 28.4 (16:20) 15 (00:00) 21.7 11.67 (17:10) 8.33 (17:10) 0.4 0.2 0.2 0 0
14-08-2017 32.4 (17:50) 11.4 (07:00) 21.9 13.06 (17:30) 6.39 (15:10) 0 0 0 0 0
13-08-2017 29.9 (17:10) 8.5 (00:00) 19.2 8.61 (17:40) 5.83 (19:40) 0 0 0 0 0
12-08-2017 28.5 (17:40) 5.8 (00:00) 17.2 8.06 (18:00) 5.83 (20:30) 0 0 0 0 0
11-08-2017 23.1 (16:40) 7.2 (00:00) 15.2 8.89 (18:20) 6.39 (20:30) 0 0 0 0 0
10-08-2017 19.1 (16:40) 7.2 (00:00) 13.2 11.39 (18:00) 6.39 (18:00) 0 0 0 0 0
09-08-2017 18.1 (14:50) 10 (00:00) 14.1 10.83 (12:10) 7.22 (18:10) 0 0 0 0 0
08-08-2017 22.2 (16:10) 13.3 (00:00) 17.8 13.33 (15:20) 6.39 (18:30) 0 0 0 0 0
07-08-2017 29.3 (17:10) 13.9 (00:00) 21.6 10 (18:20) 5.56 (18:40) 0 0 0 0 0
06-08-2017 23.4 (17:00) 13.7 (00:00) 18.5 9.72 (18:00) 6.67 (19:00) 0 0 0 0 0
05-08-2017 23.1 (15:20) 14.7 (00:00) 18.9 11.94 (16:30) 6.67 (22:00) 0 0 0 0 0
04-08-2017 35.1 (18:10) 14.2 (00:00) 24.6 10.56 (19:00) 6.94 (19:00) 0 0 0 0 0
03-08-2017 34.6 (18:00) 13 (00:00) 23.8 10.28 (14:20) 6.67 (19:30) 0 0 0 0 0
02-08-2017 32.7 (18:40) 15 (00:00) 23.9 10.56 (16:40) 5.83 (20:30) 0.2 0 0.2 0 0
01-08-2017 26.8 (16:00) 13.2 (00:00) 20 9.44 (18:40) 5.56 (18:40) 0 0 0 0 0
31-07-2017 28 (17:00) 12.8 (00:00) 20.4 11.39 (17:00) 5.83 (18:30) 0 0 0 0 0
30-07-2017 32.8 (17:10) 14.5 (00:00) 23.6 14.72 (17:00) 8.61 (18:30) 0 0 0 0 0
29-07-2017 34.1 (17:30) 12.9 (00:00) 23.5 13.89 (13:30) 8.06 (13:50) 0 0 0 0 0
28-07-2017 33.7 (18:10) 16 (00:00) 24.9 10 (18:50) 7.22 (18:50) 0 0 0 0 0
27-07-2017 34.2 (17:30) 11 (00:00) 22.6 11.11 (18:10) 6.94 (18:10) 0 0 0 0 0
26-07-2017 29 (17:20) 8.8 (00:00) 18.9 8.33 (19:30) 5.56 (20:40) 0 0 0 0 0
25-07-2017 21.6 (15:40) 13 (00:00) 17.3 9.44 (15:30) 4.72 (20:40) 0 0 0 0 0
24-07-2017 23.4 (15:40) 14.9 (00:00) 19.1 10.83 (18:00) 7.5 (18:00) 0 0 0 0 0
23-07-2017 27.7 (17:40) 12.4 (00:00) 20.1 8.61 (18:30) 5.28 (21:00) 0 0 0 0 0
22-07-2017 29.9 (17:30) 9.3 (00:00) 19.6 11.11 (15:40) 6.94 (18:40) 0 0 0 0 0

Gráficas

Temp. máximas Temp. mínimas Temp. medias Precipitaciones Rachas de viento máximas Velocidades máximas media en intervalos de 10 minutos

Datos horarios

Fecha y hora oficial Temperatura (ºC) Velocidad del viento (km/h) Dirección del viento Racha (km/h) Dirección de racha Precipitación (mm) Presión (hPa) Tendencia (hPa) Humedad (%)
2017-08-20 23:00:00 18.7 12 Sudoeste 26 Sudoeste 0 -- -- 52
2017-08-20 22:00:00 20.1 14 Sur 24 Sudeste 0 -- -- 47
2017-08-20 21:00:00 22.6 17 Sur 25 Sur 0 -- -- 35
2017-08-20 20:00:00 25.6 18 Sur 27 Sur 0 -- -- 31
2017-08-20 19:00:00 27.2 15 Sur 31 Sur 0 -- -- 29
2017-08-20 18:00:00 28 14 Sur 28 Sudeste 0 -- -- 24
2017-08-20 17:00:00 27.8 13 Sur 28 Sur 0 -- -- 25
2017-08-20 16:00:00 27.1 13 Sur 33 Sur 0 -- -- 23
2017-08-20 15:00:00 26.1 15 Sur 25 Sur 0 -- -- 19
2017-08-20 14:00:00 24.6 14 Sur 33 Sur 0 -- -- 19
2017-08-20 13:00:00 22.9 12 Sur 26 Sudeste 0 -- -- 22
2017-08-20 12:00:00 20.2 10 Sur 17 Sur 0 -- -- 34
2017-08-20 11:00:00 17.2 8 Sur 17 Sur 0 -- -- 58
2017-08-20 10:00:00 14.6 7 Sur 14 Sur 0 -- -- 73
2017-08-20 09:00:00 11.6 5 Noroeste 10 Oeste 0 -- -- 90
2017-08-20 08:00:00 8.9 4 Oeste 11 Sudoeste 0 -- -- 98
2017-08-20 07:00:00 8.7 4 Norte 13 Sudoeste 0 -- -- 95
2017-08-20 06:00:00 8.9 4 Noroeste 15 Sudoeste 0 -- -- 94
2017-08-20 05:00:00 10.2 8 Sudoeste 16 Sudoeste 0 -- -- 93
2017-08-20 04:00:00 10.7 7 Sudoeste 16 Sudoeste 0 -- -- 93
2017-08-20 03:00:00 11.4 9 Sudoeste 17 Sudoeste 0 -- -- 90
2017-08-20 02:00:00 12 10 Sudoeste 17 Sudoeste 0 -- -- 90
2017-08-20 01:00:00 12.8 10 Sur 17 Sur 0 -- -- 84
2017-08-20 00:00:00 13.7 6 Sur 14 Sudoeste 0 -- -- 82
2017-08-19 23:00:00 14.4 10 Sudoeste 15 Sur 0 -- -- 80
2017-08-19 22:00:00 15.5 11 Sur 24 Sur 0 -- -- 76
2017-08-19 21:00:00 17.7 18 Sur 31 Sur 0 -- -- 69
2017-08-19 20:00:00 20.5 23 Sur 31 Sur 0 -- -- 59
2017-08-19 19:00:00 22.9 18 Sudeste 29 Sur 0 -- -- 50
2017-08-19 18:00:00 24.3 17 Sudeste 29 Sur 0 -- -- 44
2017-08-19 17:00:00 24.7 15 Sudeste 29 Sudeste 0 -- -- 42
2017-08-19 16:00:00 24.8 12 Sudeste 26 Sur 0 -- -- 43
2017-08-19 15:00:00 23.9 10 Sudeste 27 Sudeste 0 -- -- 45
2017-08-19 14:00:00 22.8 11 Sudeste 27 Sur 0 -- -- 48
2017-08-19 13:00:00 21.1 12 Sudeste 28 Sur 0 -- -- 52
2017-08-19 12:00:00 20.1 16 Sur 28 Sur 0 -- -- 57
2017-08-19 11:00:00 18.2 17 Sur 27 Sur 0 -- -- 70
2017-08-19 10:00:00 16.8 17 Sur 24 Sur 0 -- -- 81
2017-08-19 09:00:00 16.2 15 Sur 22 Sur 0 -- -- 84
2017-08-19 08:00:00 15.7 12 Sur 19 Sur 0 -- -- 88
2017-08-19 07:00:00 15.4 13 Sur 19 Sur 0 -- -- 90
2017-08-19 06:00:00 15.4 9 Sur 19 Sur 0 -- -- 88
2017-08-19 05:00:00 15.3 11 Sur 20 Sudoeste 0 -- -- 87
2017-08-19 04:00:00 14.5 10 Sudoeste 18 Sudoeste 0 -- -- 91
2017-08-19 03:00:00 14.4 12 Sudoeste 21 Sudoeste 0 -- -- 89
2017-08-19 02:00:00 15.4 13 Sur 21 Sudoeste 0 -- -- 86
2017-08-19 01:00:00 17 13 Sur 27 Sur 0 -- -- 79
2017-08-19 00:00:00 17.3 17 Sur 24 Sur 0 -- -- 79
2017-08-18 23:00:00 18 15 Sur 24 Sur 0 -- -- 77
2017-08-18 22:00:00 18.4 18 Sur 37 Sur 0 -- -- 75
2017-08-18 21:00:00 19.3 18 Sur 27 Sur 0 -- -- 72
2017-08-18 20:00:00 20.5 22 Sur 31 Sur 0 -- -- 68
2017-08-18 19:00:00 22.1 24 Sur 32 Sur 0 -- -- 63
2017-08-18 18:00:00 24.6 14 Sudeste 27 Sudeste 0 -- -- 53
2017-08-18 17:00:00 24.8 14 Sudeste 24 Sudeste 0 -- -- 53
2017-08-18 16:00:00 24.9 12 Sur 32 Sudeste 0 -- -- 52
2017-08-18 15:00:00 25.5 15 Sudeste 27 Sudeste 0 -- -- 50
2017-08-18 14:00:00 25 14 Sudeste 27 Sudeste 0 -- -- 52
2017-08-18 13:00:00 23.7 14 Sudeste 23 Sudeste 0 -- -- 54
2017-08-18 12:00:00 22.6 8 Sur 18 Sur 0 -- -- 60
2017-08-18 11:00:00 19.6 6 Nordeste 12 Nordeste 0 -- -- 74
2017-08-18 10:00:00 18 2 Sur 10 Nordeste 0 -- -- 83
2017-08-18 09:00:00 16 0 Calma 12 Sudoeste 0 -- -- 89
2017-08-18 08:00:00 14.2 4 Oeste 17 Sudoeste 0 -- -- 93
2017-08-18 07:00:00 15.1 12 Sudoeste 18 Sudoeste 0 -- -- 92
2017-08-18 06:00:00 15.3 8 Sudoeste 14 Sur 0 -- -- 90
2017-08-18 05:00:00 15.3 0 Calma 9 Sur 0 -- -- 86
2017-08-18 04:00:00 16.6 3 Noroeste 15 Sudoeste 0 -- -- 78
2017-08-18 03:00:00 17 0 Calma 11 Norte 0 -- -- 75
2017-08-18 02:00:00 17.7 4 Norte 13 Noroeste 0 -- -- 74
2017-08-18 01:00:00 18.2 0 Calma 8 Noroeste 0 -- -- 70
2017-08-18 00:00:00 20.1 4 Noroeste 12 Sudoeste 0 -- -- 66
2017-08-17 23:00:00 22.1 6 Sudoeste 14 Sudoeste 0 -- -- 59
2017-08-17 22:00:00 23.4 11 Sudoeste 18 Sur 0 -- -- 55
2017-08-17 21:00:00 25.7 12 Sudeste 29 Sudeste 0 -- -- 49
2017-08-17 20:00:00 28.5 18 Sudeste 33 Sudeste 0 -- -- 44
2017-08-17 19:00:00 30.2 23 Sudeste 44 Sudeste 0 -- -- 39
2017-08-17 18:00:00 32.6 21 Sur 35 Sur 0 -- -- 28
2017-08-17 17:00:00 32.8 13 Sur 24 Sudoeste 0 -- -- 27
2017-08-17 16:00:00 31.8 10 Sudeste 24 Sudeste 0 -- -- 29
2017-08-17 15:00:00 31 14 Sur 23 Sur 0 -- -- 31
2017-08-17 14:00:00 30 14 Sur 28 Sudeste 0 -- -- 33
2017-08-17 13:00:00 28.8 8 Sudeste 17 Sudeste 0 -- -- 35
2017-08-17 12:00:00 25.7 4 Este 14 Sudeste 0 -- -- 42
2017-08-17 11:00:00 22.5 3 Este 8 Sudeste 0 -- -- 46
2017-08-17 10:00:00 19.4 0 Calma 6 Nordeste 0 -- -- 55
2017-08-17 09:00:00 16 3 Noroeste 8 Oeste 0 -- -- 65
2017-08-17 08:00:00 11.7 0 Calma 9 Noroeste 0 -- -- 77
2017-08-17 07:00:00 11.1 0 Calma 5 Sudoeste 0 -- -- 77
2017-08-17 06:00:00 11.3 0 Calma 5 Noroeste 0 -- -- 75
2017-08-17 05:00:00 12.1 3 Noroeste 6 Noroeste 0 -- -- 74
2017-08-17 04:00:00 13.6 2 Norte 12 Sudoeste 0 -- -- 68
2017-08-17 03:00:00 16 9 Sudoeste 19 Sudoeste 0 -- -- 61
2017-08-17 02:00:00 15.3 4 Noroeste 18 Sudoeste 0 -- -- 60
2017-08-17 01:00:00 16.6 14 Sudoeste 23 Sudoeste 0 -- -- 56
2017-08-17 00:00:00 17.3 14 Sudoeste 22 Sudoeste 0 -- -- 57
2017-08-16 23:00:00 18.1 13 Sudoeste 24 Sudoeste 0 -- -- 57
2017-08-16 22:00:00 19.7 17 Sur 24 Sur 0 -- -- 55
2017-08-16 21:00:00 22.1 18 Sur 26 Sur 0 -- -- 57
2017-08-16 20:00:00 24.2 19 Sur 28 Sur 0 -- -- 52
2017-08-16 19:00:00 27.1 19 Sur 33 Sur 0 -- -- 44
2017-08-16 18:00:00 28.3 18 Sudeste 28 Sur 0 -- -- 39
2017-08-16 17:00:00 29.1 9 Sudeste 18 Sudeste 0 -- -- 31
2017-08-16 16:00:00 28.4 8 Este 18 Sudeste 0 -- -- 32
2017-08-16 15:00:00 27.5 7 Este 16 Sudoeste 0 -- -- 34
2017-08-16 14:00:00 26.2 3 Este 17 Este 0 -- -- 41
2017-08-16 13:00:00 24.4 10 Este 15 Este 0 -- -- 45
2017-08-16 12:00:00 22.9 4 Sur 13 Este 0 -- -- 54
2017-08-16 11:00:00 21 2 Sudeste 10 Este 0 -- -- 61
2017-08-16 10:00:00 19.5 2 Oeste 6 Sudoeste 0 -- -- 68
2017-08-16 09:00:00 17 0 Calma 3 Este 0 -- -- 77
2017-08-16 08:00:00 16.3 2 Sudeste 8 Sur 0 -- -- 79
2017-08-16 07:00:00 16.2 4 Sur 10 Sur 0 -- -- 85
2017-08-16 06:00:00 16.3 5 Sudeste 13 Sur 0 -- -- 85
2017-08-16 05:00:00 16.3 9 Sur 15 Sur 0 -- -- 85
2017-08-16 04:00:00 16.7 6 Sur 13 Sur 0 -- -- 81
2017-08-16 03:00:00 16.6 7 Sudeste 13 Sudeste 0 -- -- 77
2017-08-16 02:00:00 16.9 8 Sudeste 15 Sudeste 0 -- -- 81
2017-08-16 01:00:00 17.2 10 Sudeste 16 Sur 0 -- -- 81
2017-08-16 00:00:00 17.1 10 Sur 14 Sudeste 0 -- -- 82
2017-08-15 23:00:00 17.5 6 Sudeste 17 Sudeste 0 -- -- 81
2017-08-15 22:00:00 17.5 13 Sudeste 21 Sudeste 0 -- -- 82
2017-08-15 21:00:00 18.1 15 Sudeste 27 Sur 0 -- -- 79
2017-08-15 20:00:00 20.3 20 Sur 32 Sudeste 0 -- -- 72
2017-08-15 19:00:00 22 23 Sudeste 33 Sur 0 -- -- 65
2017-08-15 18:00:00 24.3 24 Sudeste 42 Sudeste 0 -- -- 59
2017-08-15 17:00:00 27.8 22 Sudeste 39 Sudeste 0 -- -- 49
2017-08-15 16:00:00 28 11 Sudeste 23 Sudeste 0 -- -- 44
2017-08-15 15:00:00 27.1 10 Sur 24 Sur 0 -- -- 45
2017-08-15 14:00:00 25.3 14 Sur 28 Sur 0 -- -- 51
2017-08-15 13:00:00 23.4 15 Sur 36 Sur 0 -- -- 58
2017-08-15 12:00:00 21.1 13 Sur 27 Sudoeste 0 -- -- 66
2017-08-15 11:00:00 20.4 13 Sur 24 Sur 0.2 -- -- 69
2017-08-15 10:00:00 18.5 5 Este 7 Este 0 -- -- 76
2017-08-15 09:00:00 17 0 Calma 4 Sudeste 0 -- -- 81
2017-08-15 08:00:00 15.6 0 Calma 7 Noroeste 0 -- -- 86
2017-08-15 07:00:00 15 0 Calma 6 Noroeste 0 -- -- 86
2017-08-15 06:00:00 16 0 Calma 11 Noroeste 0 -- -- 88
2017-08-15 05:00:00 17 4 Oeste 8 Noroeste 0.2 -- -- 84
2017-08-15 04:00:00 18.4 3 Noroeste 14 Sudoeste 0 -- -- 74
2017-08-15 03:00:00 19.6 6 Oeste 24 Sur 0 -- -- 67
2017-08-15 02:00:00 18.9 4 Noroeste 10 Noroeste 0 -- -- 62
2017-08-15 01:00:00 21.3 9 Sudoeste 23 Sur 0 -- -- 55
2017-08-15 00:00:00 22.8 15 Sur 23 Sur 0 -- -- 52
2017-08-14 23:00:00 23.1 4 Sur 22 Este 0 -- -- 52
2017-08-14 22:00:00 26 5 Nordeste 25 Sur 0 -- -- 38
2017-08-14 21:00:00 28.2 6 Oeste 30 Oeste 0 -- -- 30
2017-08-14 20:00:00 30.1 15 Sur 29 Sur 0 -- -- 33
2017-08-14 19:00:00 30.4 20 Sur 35 Sudoeste 0 -- -- 35
2017-08-14 18:00:00 32.1 17 Sur 47 Sur 0 -- -- 32
2017-08-14 17:00:00 31.9 17 Sudoeste 30 Sur 0 -- -- 30
2017-08-14 16:00:00 31.7 14 Sudoeste 39 Sur 0 -- -- 32
2017-08-14 15:00:00 31.1 21 Sur 32 Sur 0 -- -- 35
2017-08-14 14:00:00 29.5 16 Sur 29 Sur 0 -- -- 40
2017-08-14 13:00:00 26.9 14 Sudoeste 24 Sur 0 -- -- 48
2017-08-14 12:00:00 24.7 15 Sur 24 Sur 0 -- -- 54
2017-08-14 11:00:00 22.2 12 Sudoeste 22 Sur 0 -- -- 63
2017-08-14 10:00:00 20 5 Sudeste 17 Sudoeste 0 -- -- 71
2017-08-14 09:00:00 16.4 4 Noroeste 10 Noroeste 0 -- -- 85
2017-08-14 08:00:00 12.1 0 Calma 9 Sudoeste 0 -- -- 91
2017-08-14 07:00:00 11.4 2 Noroeste 9 Oeste 0 -- -- 91
2017-08-14 06:00:00 11.7 0 Calma 4 Norte 0 -- -- 91
2017-08-14 05:00:00 13.1 4 Noroeste 9 Norte 0 -- -- 89
2017-08-14 04:00:00 13.3 2 Norte 6 Norte 0 -- -- 88
2017-08-14 03:00:00 14.4 3 Norte 7 Noroeste 0 -- -- 85
2017-08-14 02:00:00 15.3 3 Noroeste 6 Noroeste 0 -- -- 80
2017-08-14 01:00:00 16.6 0 Calma 8 Oeste 0 -- -- 79
2017-08-14 00:00:00 18.4 5 Oeste 10 Noroeste 0 -- -- 72
2017-08-13 23:00:00 20.5 4 Oeste 21 Sur 0 -- -- 65
2017-08-13 22:00:00 22.3 14 Sur 24 Sur 0 -- -- 59
2017-08-13 21:00:00 24.9 16 Sur 27 Sur 0 -- -- 44
2017-08-13 20:00:00 27.7 19 Sur 30 Sur 0 -- -- 38
2017-08-13 19:00:00 29 17 Sur 28 Sur 0 -- -- 34
2017-08-13 18:00:00 29.9 14 Sur 31 Sur 0 -- -- 29
2017-08-13 17:00:00 29.7 12 Sur 26 Sudeste 0 -- -- 27
2017-08-13 16:00:00 28.9 8 Sudeste 26 Sur 0 -- -- 26
2017-08-13 15:00:00 28 13 Sur 24 Sur 0 -- -- 29
2017-08-13 14:00:00 26.9 11 Sur 25 Sur 0 -- -- 30
2017-08-13 13:00:00 25.2 8 Sur 24 Sur 0 -- -- 36
2017-08-13 12:00:00 22.5 8 Sudeste 17 Sudeste 0 -- -- 43
2017-08-13 11:00:00 20.2 9 Sudeste 17 Sudeste 0 -- -- 47
2017-08-13 10:00:00 17.4 4 Sudeste 8 Sudeste 0 -- -- 47
2017-08-13 09:00:00 13.3 0 Calma 9 Noroeste 0 -- -- 60
2017-08-13 08:00:00 10.4 7 Noroeste 10 Noroeste 0 -- -- 71
2017-08-13 07:00:00 9 4 Oeste 6 Oeste 0 -- -- 76
2017-08-13 06:00:00 10.1 7 Noroeste 10 Noroeste 0 -- -- 70
2017-08-13 05:00:00 10.4 3 Norte 7 Noroeste 0 -- -- 66
2017-08-13 04:00:00 11.7 4 Oeste 10 Sudoeste 0 -- -- 63
2017-08-13 03:00:00 11.6 0 Calma 9 Noroeste 0 -- -- 64
2017-08-13 02:00:00 12.5 4 Norte 10 Norte 0 -- -- 61
2017-08-13 01:00:00 14.2 3 Oeste 14 Sudoeste 0 -- -- 49
2017-08-13 00:00:00 15.5 10 Sudoeste 21 Sudoeste 0 -- -- 49
2017-08-12 23:00:00 16.7 13 Sudoeste 23 Sur 0 -- -- 54
2017-08-12 22:00:00 18.1 14 Sur 27 Sur 0 -- -- 55
2017-08-12 21:00:00 21.5 17 Sur 28 Sur 0 -- -- 48
2017-08-12 20:00:00 25.2 18 Sudeste 29 Sudeste 0 -- -- 34
2017-08-12 19:00:00 27 18 Sur 28 Sur 0 -- -- 30
2017-08-12 18:00:00 28.4 18 Sudeste 29 Sudeste 0 -- -- 24
2017-08-12 17:00:00 28.3 9 Sudeste 21 Sudeste 0 -- -- 22
2017-08-12 16:00:00 27.9 12 Sudeste 26 Sur 0 -- -- 15
2017-08-12 15:00:00 26.7 10 Sudeste 22 Sur 0 -- -- 15
2017-08-12 14:00:00 25.7 7 Sur 15 Sur 0 -- -- 12
2017-08-12 13:00:00 23.9 6 Sur 19 Sudeste 0 -- -- 13
2017-08-12 12:00:00 20.4 6 Sudeste 10 Sudeste 0 -- -- 28
2017-08-12 11:00:00 17.2 5 Este 10 Este 0 -- -- 50
2017-08-12 10:00:00 13.9 0 Calma 5 Noroeste 0 -- -- 67
2017-08-12 09:00:00 10.8 2 Oeste 14 Sudoeste 0 -- -- 74
2017-08-12 08:00:00 6.5 0 Calma 9 Oeste 0 -- -- 90
2017-08-12 07:00:00 6 4 Noroeste 9 Noroeste 0 -- -- 90
2017-08-12 06:00:00 6.6 4 Sudoeste 13 Noroeste 0 -- -- 88
2017-08-12 05:00:00 7.2 4 Noroeste 9 Sudoeste 0 -- -- 86
2017-08-12 04:00:00 6.8 0 Calma 2 Sudeste 0 -- -- 86
2017-08-12 03:00:00 8.3 0 Calma 4 Noroeste 0 -- -- 82
2017-08-12 02:00:00 10.4 3 Noroeste 19 Sudoeste 0 -- -- 74
2017-08-12 01:00:00 12 13 Sudoeste 20 Sudoeste 0 -- -- 73
2017-08-12 00:00:00 12.5 8 Oeste 19 Sudoeste 0 -- -- 67
2017-08-11 23:00:00 13.9 10 Sudoeste 21 Sudoeste 0 -- -- 60
2017-08-11 22:00:00 15 13 Sur 27 Sur 0 -- -- 60
2017-08-11 21:00:00 16.9 22 Sur 31 Sur 0 -- -- 57
2017-08-11 20:00:00 19.7 18 Sudeste 28 Sudeste 0 -- -- 49
2017-08-11 19:00:00 21.5 18 Sur 32 Sudeste 0 -- -- 44
2017-08-11 18:00:00 22.6 15 Sudeste 30 Sudeste 0 -- -- 41
2017-08-11 17:00:00 22.7 5 Sur 24 Sur 0 -- -- 39
2017-08-11 16:00:00 22.4 6 Sur 23 Sudeste 0 -- -- 39
2017-08-11 15:00:00 21 6 Este 22 Este 0 -- -- 41
2017-08-11 14:00:00 20 9 Sudeste 22 Sur 0 -- -- 42
2017-08-11 13:00:00 18.6 9 Sudeste 19 Este 0 -- -- 45
2017-08-11 12:00:00 16.9 8 Sudeste 18 Sudeste 0 -- -- 51
2017-08-11 11:00:00 15.7 8 Sudeste 19 Sudeste 0 -- -- 58
2017-08-11 10:00:00 14.9 3 Noroeste 6 Norte 0 -- -- 64
2017-08-11 09:00:00 11.3 2 Oeste 6 Sudoeste 0 -- -- 78
2017-08-11 08:00:00 7.8 0 Calma 8 Noroeste 0 -- -- 88
2017-08-11 07:00:00 8.2 0 Calma 8 Noroeste 0 -- -- 83
2017-08-11 06:00:00 10.2 3 Oeste 13 Oeste 0 -- -- 79
2017-08-11 05:00:00 9.7 4 Oeste 14 Noroeste 0 -- -- 82
2017-08-11 04:00:00 9.9 8 Oeste 10 Oeste 0 -- -- 80
2017-08-11 03:00:00 9.4 0 Calma 4 Noroeste 0 -- -- 83
2017-08-11 02:00:00 9.6 2 Oeste 6 Sudoeste 0 -- -- 81
2017-08-11 01:00:00 9.9 0 Calma 12 Sudeste 0 -- -- 82
2017-08-11 00:00:00 10 2 Sur 6 Sudeste 0 -- -- 78
2017-08-10 23:00:00 11 4 Sudeste 8 Sudeste 0 -- -- 73
2017-08-10 22:00:00 13.4 10 Este 24 Este 0 -- -- 67
2017-08-10 21:00:00 14.6 15 Este 28 Este 0 -- -- 61
2017-08-10 20:00:00 15.9 15 Este 28 Sudeste 0 -- -- 58
2017-08-10 19:00:00 17.5 16 Este 33 Sudeste 0 -- -- 50
2017-08-10 18:00:00 18.5 23 Este 41 Este 0 -- -- 51
2017-08-10 17:00:00 18.6 18 Este 30 Este 0 -- -- 52
2017-08-10 16:00:00 18.2 18 Este 33 Este 0 -- -- 52
2017-08-10 15:00:00 18 15 Este 30 Este 0 -- -- 53
2017-08-10 14:00:00 17.1 15 Este 30 Nordeste 0 -- -- 56
2017-08-10 13:00:00 17.9 13 Este 27 Nordeste 0 -- -- 52
2017-08-10 12:00:00 16.2 14 Este 26 Este 0 -- -- 58
2017-08-10 11:00:00 14.9 10 Este 19 Este 0 -- -- 65
2017-08-10 10:00:00 13.6 5 Este 12 Sudeste 0 -- -- 77
2017-08-10 09:00:00 11 4 Noroeste 8 Oeste 0 -- -- 91
2017-08-10 08:00:00 10.2 2 Sudeste 8 Sudoeste 0 -- -- 89
2017-08-10 07:00:00 10.1 3 Oeste 8 Oeste 0 -- -- 76
2017-08-10 06:00:00 9.6 3 Oeste 12 Oeste 0 -- -- 77
2017-08-10 05:00:00 9.2 5 Oeste 13 Sudoeste 0 -- -- 78
2017-08-10 04:00:00 8.8 3 Oeste 10 Oeste 0 -- -- 79
2017-08-10 03:00:00 8.5 5 Noroeste 13 Oeste 0 -- -- 83
2017-08-10 02:00:00 7.4 2 Noroeste 8 Noroeste 0 -- -- 88
2017-08-10 01:00:00 8.3 4 Oeste 8 Sudoeste 0 -- -- 82
2017-08-10 00:00:00 10 5 Este 10 Este 0 -- -- 74
2017-08-09 23:00:00 11.2 6 Este 22 Este 0 -- -- 71
2017-08-09 22:00:00 12.5 11 Este 23 Este 0 -- -- 65
2017-08-09 21:00:00 13.4 18 Este 29 Sudeste 0 -- -- 63
2017-08-09 20:00:00 14.3 17 Este 34 Sudeste 0 -- -- 58
2017-08-09 19:00:00 16.3 23 Este 37 Este 0 -- -- 50
2017-08-09 18:00:00 17.4 23 Este 38 Este 0 -- -- 48
2017-08-09 17:00:00 16.8 16 Este 31 Este 0 -- -- 50
2017-08-09 16:00:00 17.8 19 Este 30 Este 0 -- -- 46
2017-08-09 15:00:00 17.3 21 Sudeste 31 Este 0 -- -- 50
2017-08-09 14:00:00 16.3 15 Sudeste 29 Este 0 -- -- 52
2017-08-09 13:00:00 15.3 16 Este 39 Sudeste 0 -- -- 57
2017-08-09 12:00:00 16.2 19 Este 31 Este 0 -- -- 56
2017-08-09 11:00:00 13.7 8 Nordeste 22 Nordeste 0 -- -- 68
2017-08-09 10:00:00 13.3 12 Nordeste 21 Nordeste 0 -- -- 71
2017-08-09 09:00:00 12.9 5 Sur 10 Sur 0 -- -- 76
2017-08-09 08:00:00 12.5 7 Sur 13 Sudoeste 0 -- -- 77
2017-08-09 07:00:00 12.5 6 Sudoeste 13 Sudoeste 0 -- -- 77
2017-08-09 06:00:00 12.6 7 Sur 11 Sudoeste 0 -- -- 76
2017-08-09 05:00:00 12.6 6 Sudoeste 10 Sur 0 -- -- 76
2017-08-09 04:00:00 12.9 6 Sur 13 Sur 0 -- -- 77
2017-08-09 03:00:00 12.9 10 Sur 17 Sur 0 -- -- 76
2017-08-09 02:00:00 13 9 Sur 17 Sur 0 -- -- 76
2017-08-09 01:00:00 13 9 Sur 21 Sur 0 -- -- 76
2017-08-09 00:00:00 13.3 13 Sur 23 Sur 0 -- -- 74
2017-08-08 23:00:00 13.6 15 Sur 23 Sur 0 -- -- 76
2017-08-08 22:00:00 13.4 16 Sur 26 Sur 0 -- -- 77
2017-08-08 21:00:00 15.2 16 Sur 29 Sudeste 0 -- -- 69
2017-08-08 20:00:00 17.7 22 Sudeste 28 Sudeste 0 -- -- 59
2017-08-08 19:00:00 18.7 17 Sur 33 Sudeste 0 -- -- 53
2017-08-08 18:00:00 19.6 19 Sudeste 29 Sur 0 -- -- 51
2017-08-08 17:00:00 20.1 22 Sur 34 Sur 0 -- -- 50
2017-08-08 16:00:00 21.6 13 Este 48 Este 0 -- -- 42
2017-08-08 15:00:00 21.2 11 Este 28 Sudeste 0 -- -- 40
2017-08-08 14:00:00 19.6 9 Sur 23 Sur 0 -- -- 45
2017-08-08 13:00:00 18.9 8 Sudeste 18 Sudeste 0 -- -- 49
2017-08-08 12:00:00 18.2 6 Este 18 Este 0 -- -- 53
2017-08-08 11:00:00 16.4 9 Nordeste 18 Este 0 -- -- 58
2017-08-08 10:00:00 15.6 5 Sudeste 9 Sudeste 0 -- -- 62
2017-08-08 09:00:00 14.6 2 Sudeste 8 Este 0 -- -- 69
2017-08-08 08:00:00 13.5 5 Este 13 Nordeste 0 -- -- 76
2017-08-08 07:00:00 13.6 7 Este 15 Este 0 -- -- 76
2017-08-08 06:00:00 13.8 10 Este 18 Este 0 -- -- 77
2017-08-08 05:00:00 14.3 10 Este 18 Este 0 -- -- 77
2017-08-08 04:00:00 15 6 Este 17 Este 0 -- -- 75
2017-08-08 03:00:00 15.3 6 Este 12 Este 0 -- -- 75
2017-08-08 02:00:00 15.5 9 Este 25 Este 0 -- -- 75
2017-08-08 01:00:00 15.8 12 Este 20 Nordeste 0 -- -- 74
2017-08-08 00:00:00 16.8 12 Este 22 Nordeste 0 -- -- 76
2017-08-07 23:00:00 17.6 12 Este 23 Este 0 -- -- 75
2017-08-07 22:00:00 18.4 11 Este 24 Sudeste 0 -- -- 74
2017-08-07 21:00:00 19.8 10 Este 22 Sudeste 0 -- -- 72
2017-08-07 20:00:00 21.4 10 Nordeste 23 Este 0 -- -- 68
2017-08-07 19:00:00 23.2 16 Este 36 Este 0 -- -- 62
2017-08-07 18:00:00 28.6 14 Sur 29 Sur 0 -- -- 41
2017-08-07 17:00:00 28.8 15 Sur 26 Sur 0 -- -- 41
2017-08-07 16:00:00 27.9 13 Sur 22 Sur 0 -- -- 42
2017-08-07 15:00:00 27.4 14 Sur 29 Sur 0 -- -- 43
2017-08-07 14:00:00 25.8 9 Sur 21 Sur 0 -- -- 48
2017-08-07 13:00:00 23.6 7 Sudeste 17 Sur 0 -- -- 54
2017-08-07 12:00:00 20.5 8 Sudeste 15 Sur 0 -- -- 64
2017-08-07 11:00:00 18.3 6 Sur 12 Sur 0 -- -- 72
2017-08-07 10:00:00 15.8 5 Sudoeste 12 Sur 0 -- -- 82
2017-08-07 09:00:00 15 5 Sudoeste 9 Sudoeste 0 -- -- 85
2017-08-07 08:00:00 14.8 5 Este 11 Sur 0 -- -- 86
2017-08-07 07:00:00 14.8 3 Sudeste 12 Sudeste 0 -- -- 86
2017-08-07 06:00:00 14.9 7 Sudeste 16 Sur 0 -- -- 85
2017-08-07 05:00:00 14.9 8 Sur 14 Sur 0 -- -- 86
2017-08-07 04:00:00 14.9 8 Sur 13 Sur 0 -- -- 86
2017-08-07 03:00:00 15 6 Sudeste 10 Sur 0 -- -- 84
2017-08-07 02:00:00 14.8 6 Sur 13 Sur 0 -- -- 85
2017-08-07 01:00:00 14.3 6 Sur 14 Sur 0 -- -- 86
2017-08-07 00:00:00 14 6 Sur 15 Sur 0 -- -- 86
2017-08-06 23:00:00 14.4 8 Sur 19 Sudeste 0 -- -- 85
2017-08-06 22:00:00 15.5 12 Sudeste 22 Sudeste 0 -- -- 78
2017-08-06 21:00:00 17.2 13 Sudeste 24 Sudeste 0 -- -- 71
2017-08-06 20:00:00 19.4 18 Sudeste 31 Sudeste 0 -- -- 63
2017-08-06 19:00:00 20.7 24 Sudeste 33 Sur 0 -- -- 58
2017-08-06 18:00:00 22.6 21 Sudeste 35 Sur 0 -- -- 51
2017-08-06 17:00:00 23.4 18 Sur 31 Sur 0 -- -- 47
2017-08-06 16:00:00 22.6 19 Sur 31 Sudeste 0 -- -- 47
2017-08-06 15:00:00 21.6 18 Sudeste 33 Sudeste 0 -- -- 49
2017-08-06 14:00:00 20.8 14 Sudeste 30 Sur 0 -- -- 50
2017-08-06 13:00:00 19.7 18 Sur 33 Sudeste 0 -- -- 53
2017-08-06 12:00:00 18.6 19 Sur 32 Sur 0 -- -- 56
2017-08-06 11:00:00 16.2 20 Sur 33 Sur 0 -- -- 65
2017-08-06 10:00:00 14.3 21 Sur 32 Sur 0 -- -- 78
2017-08-06 09:00:00 13.9 21 Sur 30 Sur 0 -- -- 81
2017-08-06 08:00:00 13.7 19 Sudeste 28 Sudeste 0 -- -- 83
2017-08-06 07:00:00 13.8 19 Sudeste 29 Sudeste 0 -- -- 85
2017-08-06 06:00:00 14.2 17 Sudeste 34 Sur 0 -- -- 83
2017-08-06 05:00:00 14.4 17 Sur 27 Sur 0 -- -- 87
2017-08-06 04:00:00 14.9 12 Sur 22 Sur 0 -- -- 85
2017-08-06 03:00:00 15 10 Sudeste 16 Sudeste 0 -- -- 86
2017-08-06 02:00:00 15.2 12 Sudeste 18 Sudeste 0 -- -- 83
2017-08-06 01:00:00 15.3 12 Sur 21 Sur 0 -- -- 83
2017-08-06 00:00:00 14.7 12 Sur 23 Sur 0 -- -- 85
2017-08-05 23:00:00 15.6 13 Sur 36 Sudeste 0 -- -- 81
2017-08-05 22:00:00 15.5 24 Sudeste 35 Sudeste 0 -- -- 81
2017-08-05 21:00:00 16.6 17 Sudeste 27 Sudeste 0 -- -- 78
2017-08-05 20:00:00 17.7 22 Sudeste 31 Sudeste 0 -- -- 73
2017-08-05 19:00:00 19.7 16 Sudeste 31 Sur 0 -- -- 68
2017-08-05 18:00:00 21.2 22 Sur 32 Sur 0 -- -- 63
2017-08-05 17:00:00 22 20 Sur 43 Sudeste 0 -- -- 61
2017-08-05 16:00:00 22.6 15 Sudeste 34 Sudeste 0 -- -- 62
2017-08-05 15:00:00 22.4 20 Sudeste 31 Sudeste 0 -- -- 65
2017-08-05 14:00:00 21.9 18 Sudeste 29 Sudeste 0 -- -- 68
2017-08-05 13:00:00 21.8 14 Sudeste 27 Sudeste 0 -- -- 69
2017-08-05 12:00:00 21.8 18 Sudeste 25 Sudeste 0 -- -- 72
2017-08-05 11:00:00 20.9 13 Sudeste 20 Este 0 -- -- 78
2017-08-05 10:00:00 20.5 6 Este 10 Sudeste 0 -- -- 81
2017-08-05 09:00:00 18.7 0 Calma 4 Este 0 -- -- 88
2017-08-05 08:00:00 18 3 Sudeste 6 Este 0 -- -- 90
2017-08-05 07:00:00 17.4 3 Sur 13 Sudoeste 0 -- -- 93
2017-08-05 06:00:00 16.1 0 Calma 11 Norte 0 -- -- 92
2017-08-05 05:00:00 16.9 4 Oeste 12 Oeste 0 -- -- 92
2017-08-05 04:00:00 17.3 3 Oeste 10 Sudoeste 0 -- -- 91
2017-08-05 03:00:00 18.2 7 Oeste 14 Sudoeste 0 -- -- 87
2017-08-05 02:00:00 18.9 5 Sur 15 Sur 0 -- -- 83
2017-08-05 01:00:00 19.7 10 Sur 19 Sudeste 0 -- -- 82
2017-08-05 00:00:00 20.2 9 Sur 18 Sur 0 -- -- 81
2017-08-04 23:00:00 21.1 10 Sur 18 Sur 0 -- -- 77
2017-08-04 22:00:00 22.7 13 Sur 27 Sur 0 -- -- 70
2017-08-04 21:00:00 25.9 16 Sudeste 32 Sur 0 -- -- 60
2017-08-04 20:00:00 28.9 22 Sudeste 36 Sur 0 -- -- 52
2017-08-04 19:00:00 31.5 25 Sudeste 38 Sur 0 -- -- 42
2017-08-04 18:00:00 35 10 Norte 22 Noroeste 0 -- -- 28
2017-08-04 17:00:00 33.6 10 Nordeste 24 Norte 0 -- -- 32
2017-08-04 16:00:00 33.8 14 Norte 23 Norte 0 -- -- 33
2017-08-04 15:00:00 32.1 7 Oeste 26 Nordeste 0 -- -- 36
2017-08-04 14:00:00 30.2 5 Sudeste 14 Este 0 -- -- 40
2017-08-04 13:00:00 28.7 8 Sudeste 16 Nordeste 0 -- -- 44
2017-08-04 12:00:00 26.4 6 Este 16 Este 0 -- -- 50
2017-08-04 11:00:00 24 7 Este 13 Este 0 -- -- 57
2017-08-04 10:00:00 21.1 3 Este 8 Nordeste 0 -- -- 67
2017-08-04 09:00:00 18.4 5 Norte 12 Norte 0 -- -- 75
2017-08-04 08:00:00 15.4 6 Noroeste 12 Noroeste 0 -- -- 86
2017-08-04 07:00:00 14.3 2 Oeste 8 Noroeste 0 -- -- 90
2017-08-04 06:00:00 14.3 0 Calma 6 Oeste 0 -- -- 89
2017-08-04 05:00:00 15.3 2 Oeste 5 Oeste 0 -- -- 86
2017-08-04 04:00:00 15.8 3 Oeste 9 Oeste 0 -- -- 84
2017-08-04 03:00:00 16.5 0 Calma 6 Sudoeste 0 -- -- 81
2017-08-04 02:00:00 17.1 3 Sudoeste 17 Sudoeste 0 -- -- 81
2017-08-04 01:00:00 18 0 Calma 19 Sur 0 -- -- 77
2017-08-04 00:00:00 18.8 12 Sur 26 Sur 0 -- -- 77
2017-08-03 23:00:00 20.4 19 Sur 26 Sur 0 -- -- 70
2017-08-03 22:00:00 22 14 Sur 20 Sur 0 -- -- 59
2017-08-03 21:00:00 25.5 15 Sudeste 27 Sur 0 -- -- 49
2017-08-03 20:00:00 27.8 20 Sudeste 34 Sudeste 0 -- -- 44
2017-08-03 19:00:00 34 14 Noroeste 28 Noroeste 0 -- -- 20
2017-08-03 18:00:00 34.6 16 Noroeste 33 Noroeste 0 -- -- 19
2017-08-03 17:00:00 34.2 19 Noroeste 29 Noroeste 0 -- -- 17
2017-08-03 16:00:00 33.6 18 Noroeste 36 Noroeste 0 -- -- 19
2017-08-03 15:00:00 32.7 19 Noroeste 37 Noroeste 0 -- -- 20
2017-08-03 14:00:00 31.9 20 Noroeste 35 Noroeste 0 -- -- 23
2017-08-03 13:00:00 30.2 16 Norte 29 Norte 0 -- -- 26
2017-08-03 12:00:00 28.2 5 Norte 19 Nordeste 0 -- -- 32
2017-08-03 11:00:00 23.7 6 Sudeste 14 Nordeste 0 -- -- 48
2017-08-03 10:00:00 19.6 7 Este 11 Este 0 -- -- 75
2017-08-03 09:00:00 16.9 4 Este 7 Este 0 -- -- 82
2017-08-03 08:00:00 14 3 Noroeste 10 Oeste 0 -- -- 84
2017-08-03 07:00:00 13.1 3 Oeste 9 Noroeste 0 -- -- 89
2017-08-03 06:00:00 13.3 0 Calma -- -- 0 -- -- 89
2017-08-03 05:00:00 14.3 0 Calma -- -- 0 -- -- 87
2017-08-03 04:00:00 15.6 3 Sudoeste 10 Noroeste 0 -- -- 89
2017-08-03 03:00:00 16.7 8 Oeste 13 Oeste 0 -- -- 86
2017-08-03 02:00:00 17.5 2 Noroeste 5 Noroeste 0 -- -- 82
2017-08-03 01:00:00 19.5 4 Noroeste 19 Sudoeste 0 -- -- 79
2017-08-03 00:00:00 21.1 12 Oeste 16 Sudoeste 0 -- -- 73
2017-08-02 23:00:00 22.3 4 Noroeste 14 Sur 0 -- -- 67
2017-08-02 22:00:00 24 7 Sur 23 Sur 0 -- -- 62
2017-08-02 21:00:00 27.7 17 Sudeste 28 Sur 0 -- -- 52
2017-08-02 20:00:00 31.8 15 Sur 24 Sur 0 -- -- 33
2017-08-02 19:00:00 32.5 12 Sur 27 Sudeste 0 -- -- 29
2017-08-02 18:00:00 31.9 10 Sudeste 17 Este 0 -- -- 28
2017-08-02 17:00:00 32.2 9 Sudoeste 38 Sur 0 -- -- 28
2017-08-02 16:00:00 32.1 17 Sur 28 Sur 0 -- -- 30
2017-08-02 15:00:00 30.8 4 Oeste 22 Este 0 -- -- 32
2017-08-02 14:00:00 29.4 10 Sudeste 18 Sudeste 0 -- -- 34
2017-08-02 13:00:00 27.6 6 Sudeste 16 Este 0 -- -- 38
2017-08-02 12:00:00 24.3 4 Este 11 Sudeste 0.2 -- -- 57
2017-08-02 11:00:00 21.1 5 Norte 9 Norte 0 -- -- 69
2017-08-02 10:00:00 17.7 0 Calma 11 Nordeste 0 -- -- 83
2017-08-02 09:00:00 16 4 Sudeste 8 Nordeste 0 -- -- 90
2017-08-02 08:00:00 15.7 0 Calma 10 Norte 0 -- -- 91
2017-08-02 07:00:00 15.8 3 Noroeste 9 Nordeste 0 -- -- 91
2017-08-02 06:00:00 15.8 0 Calma 7 Sudeste 0 -- -- 90
2017-08-02 05:00:00 16.1 2 Sudoeste 10 Sudoeste 0 -- -- 89
2017-08-02 04:00:00 15.7 2 Noroeste 8 Oeste 0 -- -- 90
2017-08-02 03:00:00 15.2 4 Oeste 12 Sudoeste 0 -- -- 93
2017-08-02 02:00:00 15.4 2 Sudoeste 16 Sudoeste 0 -- -- 90
2017-08-02 01:00:00 16.1 9 Sudoeste 20 Sur 0 -- -- 89
2017-08-02 00:00:00 16.7 12 Sudoeste 17 Sudoeste 0 -- -- 86
2017-08-01 23:00:00 17.8 10 Sur 22 Sur 0 -- -- 80
2017-08-01 22:00:00 18.8 15 Sur 25 Sudeste 0 -- -- 76
2017-08-01 21:00:00 21.4 19 Sur 26 Sur 0 -- -- 64
2017-08-01 20:00:00 23.7 16 Sudeste 27 Sur 0 -- -- 55
2017-08-01 19:00:00 25.2 19 Sur 34 Sudeste 0 -- -- 50
2017-08-01 18:00:00 25.8 19 Sur 31 Sur 0 -- -- 48
2017-08-01 17:00:00 26.6 17 Sur 30 Sudoeste 0 -- -- 46
2017-08-01 16:00:00 26.8 10 Sur 28 Sudoeste 0 -- -- 44
2017-08-01 15:00:00 24.9 11 Sudoeste 22 Sur 0 -- -- 49
2017-08-01 14:00:00 23.6 10 Sur 22 Sur 0 -- -- 51
2017-08-01 13:00:00 22 8 Sudoeste 23 Sur 0 -- -- 58
2017-08-01 12:00:00 20.1 10 Sudeste 23 Sur 0 -- -- 65
2017-08-01 11:00:00 17.2 4 Sudeste 12 Sur 0 -- -- 76
2017-08-01 10:00:00 16.2 6 Sudeste 12 Sur 0 -- -- 80
2017-08-01 09:00:00 15.5 6 Sudeste 9 Sudeste 0 -- -- 83
2017-08-01 08:00:00 14.5 0 Calma -- -- 0 -- -- 87
2017-08-01 07:00:00 13.5 0 Calma 9 Sudoeste 0 -- -- 91
2017-08-01 06:00:00 13.6 6 Sudoeste 12 Sudoeste 0 -- -- 91
2017-08-01 05:00:00 14.6 7 Sudoeste 14 Sudoeste 0 -- -- 89
2017-08-01 04:00:00 15.1 4 Sudoeste 13 Sur 0 -- -- 87
2017-08-01 03:00:00 15.8 7 Sur 13 Sur 0 -- -- 85
2017-08-01 02:00:00 15.9 8 Sudeste 18 Sur 0 -- -- 86
2017-08-01 01:00:00 15.8 14 Sur 19 Sur 0 -- -- 87
2017-08-01 00:00:00 16.2 10 Sur 23 Sur 0 -- -- 84
2017-07-31 23:00:00 16.5 10 Sur 17 Sur 0 -- -- 83
2017-07-31 22:00:00 17 12 Sudeste 21 Sudeste 0 -- -- 82
2017-07-31 21:00:00 18.8 14 Sudeste 27 Sudeste 0 -- -- 74
2017-07-31 20:00:00 21.7 15 Sudeste 27 Sudeste 0 -- -- 62
2017-07-31 19:00:00 23.2 19 Sudeste 31 Sudeste 0 -- -- 59
2017-07-31 18:00:00 25.6 17 Sur 32 Sudoeste 0 -- -- 50
2017-07-31 17:00:00 28 16 Sur 41 Sur 0 -- -- 42
2017-07-31 16:00:00 26.5 9 Sur 19 Este 0 -- -- 45
2017-07-31 15:00:00 24.9 6 Sur 17 Sudeste 0 -- -- 50
2017-07-31 14:00:00 22.8 9 Sudeste 18 Sudeste 0 -- -- 57
2017-07-31 13:00:00 21.3 7 Sudeste 17 Sudeste 0 -- -- 62
2017-07-31 12:00:00 19.1 6 Sudeste 18 Sur 0 -- -- 71
2017-07-31 11:00:00 17.1 13 Sudeste 20 Sudoeste 0 -- -- 80
2017-07-31 10:00:00 16 11 Sur 23 Sur 0 -- -- 85
2017-07-31 09:00:00 15.5 8 Sudeste 18 Sur 0 -- -- 83
2017-07-31 08:00:00 15.3 11 Sur 16 Sur 0 -- -- 85
2017-07-31 07:00:00 15 13 Sur 21 Sur 0 -- -- 84
2017-07-31 06:00:00 14.7 13 Sudeste 19 Sur 0 -- -- 82
2017-07-31 05:00:00 14.1 9 Sur 15 Sur 0 -- -- 81
2017-07-31 04:00:00 13 6 Sur 14 Sur 0 -- -- 80
2017-07-31 03:00:00 15.6 9 Sur 14 Sur 0 -- -- 75
2017-07-31 02:00:00 15.9 7 Sudeste 14 Sur 0 -- -- 76
2017-07-31 01:00:00 16.1 9 Sudeste 16 Sudeste 0 -- -- 75
2017-07-31 00:00:00 16.4 12 Sudeste 20 Sudeste 0 -- -- 81
2017-07-30 23:00:00 16.9 13 Sudeste 20 Sur 0 -- -- 81
2017-07-30 22:00:00 16.9 15 Sudeste 26 Sudeste 0 -- -- 80
2017-07-30 21:00:00 19.1 16 Sur 26 Sur 0 -- -- 71
2017-07-30 20:00:00 21.9 18 Sudeste 34 Sudeste 0 -- -- 61
2017-07-30 19:00:00 24 26 Sudeste 44 Sudeste 0 -- -- 53
2017-07-30 18:00:00 32.3 21 Norte 48 Norte 0 -- -- 19
2017-07-30 17:00:00 32.5 31 Norte 53 Noroeste 0 -- -- 19
2017-07-30 16:00:00 32.2 26 Noroeste 46 Noroeste 0 -- -- 21
2017-07-30 15:00:00 31.6 21 Noroeste 44 Noroeste 0 -- -- 22
2017-07-30 14:00:00 30.5 19 Noroeste 35 Noroeste 0 -- -- 24
2017-07-30 13:00:00 29 18 Norte 30 Norte 0 -- -- 28
2017-07-30 12:00:00 26.1 8 Este 16 Este 0 -- -- 42
2017-07-30 11:00:00 23.5 7 Este 12 Este 0 -- -- 53
2017-07-30 10:00:00 20.4 5 Este 11 Este 0 -- -- 66
2017-07-30 09:00:00 19.1 2 Oeste 8 Noroeste 0 -- -- 60
2017-07-30 08:00:00 14.7 0 Calma 5 Norte 0 -- -- 80
2017-07-30 07:00:00 15 0 Calma 4 Norte 0 -- -- 83
2017-07-30 06:00:00 16 0 Calma 8 Sudoeste 0 -- -- 79
2017-07-30 05:00:00 17 0 Calma 6 Sudoeste 0 -- -- 78
2017-07-30 04:00:00 19.1 2 Este 9 Norte 0 -- -- 71
2017-07-30 03:00:00 20.4 4 Nordeste 11 Este 0 -- -- 60
2017-07-30 02:00:00 23.1 4 Oeste 19 Noroeste 0 -- -- 37
2017-07-30 01:00:00 25.9 15 Noroeste 29 Noroeste 0 -- -- 32
2017-07-30 00:00:00 25.5 15 Noroeste 26 Noroeste 0 -- -- 34
2017-07-29 23:00:00 25 11 Noroeste 15 Noroeste 0 -- -- 33
2017-07-29 22:00:00 26.8 6 Oeste 12 Noroeste 0 -- -- 29
2017-07-29 21:00:00 31 6 Norte 33 Noroeste 0 -- -- 24
2017-07-29 20:00:00 32.5 20 Norte 36 Noroeste 0 -- -- 21
2017-07-29 19:00:00 32.8 20 Noroeste 40 Noroeste 0 -- -- 21
2017-07-29 18:00:00 33.7 24 Noroeste 41 Noroeste 0 -- -- 19
2017-07-29 17:00:00 33.2 24 Noroeste 41 Norte 0 -- -- 21
2017-07-29 16:00:00 32.7 20 Noroeste 39 Noroeste 0 -- -- 22
2017-07-29 15:00:00 32 23 Noroeste 44 Noroeste 0 -- -- 22
2017-07-29 14:00:00 30.7 26 Norte 50 Norte 0 -- -- 24
2017-07-29 13:00:00 29.2 24 Noroeste 41 Noroeste 0 -- -- 33
2017-07-29 12:00:00 26.9 8 Este 14 Sudeste 0 -- -- 32
2017-07-29 11:00:00 23.2 6 Este 11 Este 0 -- -- 32
2017-07-29 10:00:00 20.5 2 Este 8 Este 0 -- -- 41
2017-07-29 09:00:00 17.2 0 Calma 14 Noroeste 0 -- -- 54
2017-07-29 08:00:00 14.1 7 Noroeste 13 Oeste 0 -- -- 64
2017-07-29 07:00:00 13.2 4 Noroeste 11 Noroeste 0 -- -- 66
2017-07-29 06:00:00 13.8 4 Noroeste 9 Noroeste 0 -- -- 65
2017-07-29 05:00:00 14.1 5 Noroeste 10 Noroeste 0 -- -- 64
2017-07-29 04:00:00 14.4 2 Oeste 8 Noroeste 0 -- -- 64
2017-07-29 03:00:00 15.5 0 Calma 12 Oeste 0 -- -- 64
2017-07-29 02:00:00 17.3 4 Oeste 20 Sudoeste 0 -- -- 59
2017-07-29 01:00:00 18.5 14 Sudoeste 20 Sudoeste 0 -- -- 47
2017-07-29 00:00:00 19.1 14 Sudoeste 22 Sudoeste 0 -- -- 48
2017-07-28 23:00:00 21.1 15 Sudoeste 22 Sur 0 -- -- 46
2017-07-28 22:00:00 22.3 15 Sur 22 Sur 0 -- -- 47
2017-07-28 21:00:00 25.1 15 Sur 33 Sur 0 -- -- 42
2017-07-28 20:00:00 27.6 24 Sur 32 Sudeste 0 -- -- 43
2017-07-28 19:00:00 29.7 24 Sudeste 36 Sudeste 0 -- -- 41
2017-07-28 18:00:00 33.3 6 Oeste 23 Noroeste 0 -- -- 22
2017-07-28 17:00:00 32.9 10 Oeste 30 Noroeste 0 -- -- 22
2017-07-28 16:00:00 32.2 13 Norte 28 Noroeste 0 -- -- 24
2017-07-28 15:00:00 30.4 8 Nordeste 19 Este 0 -- -- 33
2017-07-28 14:00:00 28.3 8 Nordeste 19 Este 0 -- -- 43
2017-07-28 13:00:00 26.2 7 Sudeste 23 Nordeste 0 -- -- 52
2017-07-28 12:00:00 24.7 6 Sudeste 14 Sudeste 0 -- -- 55
2017-07-28 11:00:00 22.4 4 Este 12 Este 0 -- -- 65
2017-07-28 10:00:00 21.1 6 Sudeste 10 Sur 0 -- -- 71
2017-07-28 09:00:00 18.8 4 Sudeste 7 Sur 0 -- -- 83
2017-07-28 08:00:00 17.9 3 Sur 6 Sur 0 -- -- 88
2017-07-28 07:00:00 17.5 4 Sur 7 Sur 0 -- -- 89
2017-07-28 06:00:00 17.4 4 Sudeste 9 Sur 0 -- -- 90
2017-07-28 05:00:00 17.1 3 Sudoeste 17 Sudoeste 0 -- -- 91
2017-07-28 04:00:00 16.2 12 Sudoeste 19 Sudoeste 0 -- -- 93
2017-07-28 03:00:00 16 12 Sudoeste 18 Sudoeste 0 -- -- 93
2017-07-28 02:00:00 16.2 10 Sudoeste 14 Sudoeste 0 -- -- 92
2017-07-28 01:00:00 16.2 9 Sur 13 Sur 0 -- -- 91
2017-07-28 00:00:00 17.5 10 Sur 18 Sur 0 -- -- 87
2017-07-27 23:00:00 19 12 Sur 28 Sur 0 -- -- 80
2017-07-27 22:00:00 20.8 19 Sur 28 Sur 0 -- -- 71
2017-07-27 21:00:00 23.7 17 Sur 30 Sur 0 -- -- 61
2017-07-27 20:00:00 26.8 19 Sudeste 32 Sudeste 0 -- -- 48
2017-07-27 19:00:00 29 21 Sudeste 40 Sudeste 0 -- -- 41
2017-07-27 18:00:00 34.1 9 Norte 31 Norte 0 -- -- 18
2017-07-27 17:00:00 33.8 13 Nordeste 33 Noroeste 0 -- -- 16
2017-07-27 16:00:00 32.3 6 Sudoeste 22 Sur 0 -- -- 21
2017-07-27 15:00:00 31 8 Este 21 Sudeste 0 -- -- 27
2017-07-27 14:00:00 29.7 8 Este 23 Sudeste 0 -- -- 28
2017-07-27 13:00:00 28.4 9 Nordeste 23 Sudeste 0 -- -- 30
2017-07-27 12:00:00 26.7 7 Sudeste 22 Sudeste 0 -- -- 34
2017-07-27 11:00:00 22.9 5 Sudeste 10 Este 0 -- -- 46
2017-07-27 10:00:00 20 2 Nordeste 5 Nordeste 0 -- -- 57
2017-07-27 09:00:00 17.2 0 Calma 12 Oeste 0 -- -- 63
2017-07-27 08:00:00 13.1 4 Oeste 8 Noroeste 0 -- -- 76
2017-07-27 07:00:00 11.3 7 Noroeste 10 Sudoeste 0 -- -- 82
2017-07-27 06:00:00 11.5 2 Norte 6 Noroeste 0 -- -- 83
2017-07-27 05:00:00 12.9 3 Noroeste 12 Noroeste 0 -- -- 79
2017-07-27 04:00:00 13.9 2 Oeste 8 Norte 0 -- -- 77
2017-07-27 03:00:00 16.5 4 Sur 14 Sudoeste 0 -- -- 70
2017-07-27 02:00:00 17 6 Sudoeste 22 Sudoeste 0 -- -- 69
2017-07-27 01:00:00 18.4 9 Sudoeste 21 Sudoeste 0 -- -- 61
2017-07-27 00:00:00 19.3 15 Sudoeste 23 Sudoeste 0 -- -- 58
2017-07-26 23:00:00 19.6 10 Sudoeste 20 Sudoeste 0 -- -- 58
2017-07-26 22:00:00 21.5 13 Sur 23 Sur 0 -- -- 53
2017-07-26 21:00:00 24.1 15 Sur 26 Sur 0 -- -- 47
2017-07-26 20:00:00 26.4 19 Sur 30 Sur 0 -- -- 44
2017-07-26 19:00:00 28.7 8 Sudeste 23 Sur 0 -- -- 32
2017-07-26 18:00:00 29 11 Sudeste 27 Sudeste 0 -- -- 32
2017-07-26 17:00:00 28.7 12 Sudeste 27 Sudeste 0 -- -- 35
2017-07-26 16:00:00 28.2 7 Nordeste 21 Sudeste 0 -- -- 36
2017-07-26 15:00:00 27.2 8 Este 26 Norte 0 -- -- 39
2017-07-26 14:00:00 26.2 8 Este 16 Sudeste 0 -- -- 43
2017-07-26 13:00:00 24.3 9 Este 16 Este 0 -- -- 48
2017-07-26 12:00:00 22.4 4 Sudeste 10 Sudeste 0 -- -- 54
2017-07-26 11:00:00 19.7 4 Norte 8 Norte 0 -- -- 58
2017-07-26 10:00:00 15.8 3 Este 8 Este 0 -- -- 73
2017-07-26 09:00:00 13.6 0 Calma 6 Oeste 0 -- -- 81
2017-07-26 08:00:00 10.4 0 Calma 9 Sudoeste 0 -- -- 92
2017-07-26 07:00:00 9 5 Oeste 9 Oeste 0 -- -- 96
2017-07-26 06:00:00 9.3 0 Calma 4 Oeste 0 -- -- 94
2017-07-26 05:00:00 10.1 4 Noroeste 6 Noroeste 0 -- -- 93
2017-07-26 04:00:00 11.2 4 Norte 21 Sudoeste 0 -- -- 91
2017-07-26 03:00:00 11.6 9 Sudoeste 18 Sudoeste 0 -- -- 91
2017-07-26 02:00:00 11.9 11 Sudoeste 18 Sudoeste 0 -- -- 90
2017-07-26 01:00:00 12.4 12 Sudoeste 17 Sudoeste 0 -- -- 87
2017-07-26 00:00:00 13 11 Sudoeste 17 Sur 0 -- -- 84
2017-07-25 23:00:00 13.7 11 Sudoeste 19 Sur 0 -- -- 81
2017-07-25 22:00:00 15.2 10 Sur 24 Sudeste 0 -- -- 72
2017-07-25 21:00:00 18.4 16 Sudeste 24 Sudeste 0 -- -- 58
2017-07-25 20:00:00 19.9 15 Sudeste 24 Sudeste 0 -- -- 52
2017-07-25 19:00:00 21.1 15 Sudeste 23 Este 0 -- -- 48
2017-07-25 18:00:00 20 14 Sudeste 24 Sudeste 0 -- -- 52
2017-07-25 17:00:00 21 9 Sudeste 27 Este 0 -- -- 49
2017-07-25 16:00:00 20.9 12 Sudeste 34 Sudeste 0 -- -- 48
2017-07-25 15:00:00 20.6 13 Sudeste 27 Sudeste 0 -- -- 48
2017-07-25 14:00:00 18.7 13 Este 27 Sudeste 0 -- -- 53
2017-07-25 13:00:00 18.1 15 Sudeste 24 Este 0 -- -- 56
2017-07-25 12:00:00 17 11 Este 22 Sudeste 0 -- -- 60
2017-07-25 11:00:00 16.8 9 Sudeste 19 Sudeste 0 -- -- 61
2017-07-25 10:00:00 15 9 Sudeste 24 Sudeste 0 -- -- 70
2017-07-25 09:00:00 14.6 10 Sudeste 19 Sudeste 0 -- -- 67
2017-07-25 08:00:00 14 10 Sudeste 19 Sudeste 0 -- -- 70
2017-07-25 07:00:00 13.8 11 Sudeste 16 Sudeste 0 -- -- 77
2017-07-25 06:00:00 14.2 9 Sudeste 14 Sudeste 0 -- -- 78
2017-07-25 05:00:00 14.3 10 Sudeste 19 Sudeste 0 -- -- 76
2017-07-25 04:00:00 14.7 14 Sudeste 18 Sudeste 0 -- -- 75
2017-07-25 03:00:00 14.9 11 Sudeste 18 Sudeste 0 -- -- 77
2017-07-25 02:00:00 15.1 8 Sudeste 19 Sudeste 0 -- -- 77
2017-07-25 01:00:00 15.4 13 Sudeste 18 Sudeste 0 -- -- 79
2017-07-25 00:00:00 15.7 9 Sudeste 18 Este 0 -- -- 77
2017-07-24 23:00:00 16.4 9 Este 22 Sudeste 0 -- -- 74
2017-07-24 22:00:00 17 10 Este 22 Este 0 -- -- 73
2017-07-24 21:00:00 18.1 10 Este 23 Este 0 -- -- 67
2017-07-24 20:00:00 19.3 15 Este 35 Este 0 -- -- 63
2017-07-24 19:00:00 20.5 19 Este 36 Sudeste 0 -- -- 57
2017-07-24 18:00:00 21.4 27 Sudeste 39 Este 0 -- -- 55
2017-07-24 17:00:00 22.7 24 Este 36 Este 0 -- -- 50
2017-07-24 16:00:00 23.1 19 Este 35 Este 0 -- -- 50
2017-07-24 15:00:00 22.5 20 Este 36 Nordeste 0 -- -- 49
2017-07-24 14:00:00 22.4 18 Este 37 Este 0 -- -- 49
2017-07-24 13:00:00 22 19 Nordeste 36 Este 0 -- -- 50
2017-07-24 12:00:00 21.7 17 Este 31 Este 0 -- -- 54
2017-07-24 11:00:00 20.5 13 Nordeste 35 Nordeste 0 -- -- 57
2017-07-24 10:00:00 19.1 16 Este 30 Nordeste 0 -- -- 65
2017-07-24 09:00:00 18.3 9 Este 18 Nordeste 0 -- -- 72
2017-07-24 08:00:00 16.5 5 Nordeste 8 Nordeste 0 -- -- 83
2017-07-24 07:00:00 15.3 0 Calma 7 Noroeste 0 -- -- 84
2017-07-24 06:00:00 15 3 Oeste 9 Oeste 0 -- -- 83
2017-07-24 05:00:00 16 2 Oeste 8 Noroeste 0 -- -- 80
2017-07-24 04:00:00 15.9 5 Noroeste 10 Noroeste 0 -- -- 80
2017-07-24 03:00:00 16.2 4 Noroeste 12 Oeste 0 -- -- 80
2017-07-24 02:00:00 16.5 7 Oeste 17 Sudoeste 0 -- -- 78
2017-07-24 01:00:00 16.7 8 Sudoeste 17 Sudoeste 0 -- -- 78
2017-07-24 00:00:00 15.8 9 Sudoeste 19 Sudoeste 0 -- -- 81
2017-07-23 23:00:00 16.9 11 Sudoeste 16 Sudoeste 0 -- -- 75
2017-07-23 22:00:00 18.5 9 Sur 24 Sur 0 -- -- 69
2017-07-23 21:00:00 22 19 Sur 26 Sur 0 -- -- 59
2017-07-23 20:00:00 24.1 12 Sudeste 29 Este 0 -- -- 49
2017-07-23 19:00:00 25.5 17 Sudeste 31 Sudeste 0 -- -- 44
2017-07-23 18:00:00 27.1 14 Este 27 Sudeste 0 -- -- 35
2017-07-23 17:00:00 27.1 10 Este 22 Este 0 -- -- 35
2017-07-23 16:00:00 26.6 9 Este 22 Sudeste 0 -- -- 36
2017-07-23 15:00:00 25.8 5 Norte 22 Este 0 -- -- 38
2017-07-23 14:00:00 24.5 7 Sur 22 Sudeste 0 -- -- 39
2017-07-23 13:00:00 22.9 7 Este 20 Sudeste 0 -- -- 44
2017-07-23 12:00:00 20.4 4 Nordeste 15 Sudeste 0 -- -- 52
2017-07-23 11:00:00 18.8 8 Sur 20 Sudoeste 0 -- -- 59
2017-07-23 10:00:00 16.8 10 Sudeste 18 Sur 0 -- -- 69
2017-07-23 09:00:00 14.8 11 Sur 18 Sur 0 -- -- 77
2017-07-23 08:00:00 13.8 10 Sur 17 Sur 0 -- -- 85
2017-07-23 07:00:00 12.9 8 Sudoeste 18 Sur 0 -- -- 91
2017-07-23 06:00:00 12.4 5 Sur 14 Sur 0 -- -- 91
2017-07-23 05:00:00 13.9 6 Sur 14 Sudoeste 0 -- -- 87
2017-07-23 04:00:00 14.3 8 Sur 15 Sudoeste 0 -- -- 86
2017-07-23 03:00:00 14.7 8 Sudoeste 18 Sur 0 -- -- 83
2017-07-23 02:00:00 14.8 11 Sur 17 Sur 0 -- -- 82
2017-07-23 01:00:00 15 12 Sur 19 Sur 0 -- -- 81
2017-07-23 00:00:00 15.3 11 Sur 21 Sur 0 -- -- 81
2017-07-22 23:00:00 15.5 15 Sur 23 Sur 0 -- -- 83
2017-07-22 22:00:00 15.9 16 Sur 27 Sur 0 -- -- 82
2017-07-22 21:00:00 19 15 Sudeste 23 Sur 0 -- -- 69
2017-07-22 20:00:00 21.9 15 Este 27 Este 0 -- -- 59
2017-07-22 19:00:00 24.5 21 Sudeste 34 Sudeste 0 -- -- 50
2017-07-22 18:00:00 29.8 17 Noroeste 36 Noroeste 0 -- -- 20
2017-07-22 17:00:00 29.4 12 Norte 39 Norte 0 -- -- 21
2017-07-22 16:00:00 28.7 17 Noroeste 40 Noroeste 0 -- -- 21
2017-07-22 15:00:00 27.7 22 Noroeste 37 Noroeste 0 -- -- 26
2017-07-22 14:00:00 26.6 17 Noroeste 33 Noroeste 0 -- -- 31
2017-07-22 13:00:00 23.9 10 Sudeste 19 Este 0 -- -- 44
2017-07-22 12:00:00 22.5 8 Este 15 Nordeste 0 -- -- 46
2017-07-22 11:00:00 18.7 2 Este 12 Sudeste 0 -- -- 59
2017-07-22 10:00:00 15.5 0 Calma -- -- 0 -- -- 70
2017-07-22 09:00:00 12.7 0 Calma 9 Noroeste 0 -- -- 80
2017-07-22 08:00:00 10.3 0 Calma 7 Noroeste 0 -- -- 92
2017-07-22 07:00:00 9.3 3 Noroeste 5 Noroeste 0 -- -- 94
2017-07-22 06:00:00 9.7 0 Calma 9 Oeste 0 -- -- 94
2017-07-22 05:00:00 10.1 5 Noroeste 8 Oeste 0 -- -- 93
2017-07-22 04:00:00 10.5 3 Noroeste 8 Sudoeste 0 -- -- 90
2017-07-22 03:00:00 11.9 2 Noroeste 18 Sudoeste 0 -- -- 84
2017-07-22 02:00:00 13 10 Sudoeste 19 Sudoeste 0 -- -- 83
2017-07-22 01:00:00 12.9 9 Noroeste 20 Oeste 0 -- -- 86
2017-07-22 00:00:00 13.8 12 Sudoeste 21 Sudoeste 0 -- -- 85